Harmon, Arkansas
Current Conditions -  °F | °C
As of 3:53 PM on Friday 28 Nov 2014 (Local Time) from KFYV Reporting Station
Clear Clear  
Wind Chill: 15°   Ceiling: Unl
Heat Index: 15°   Visibility: 10mi
Dew Point:   Wind: 18mph
Humidity: 44%   Direction: 190°S
Pressure: 29.96"   Gusts: 25mph
Location:  35.9902°N, 94.083°W
Report Text: KFYV 282153Z 19016G22KT 10SM CLR 15/03 A2996 RMK AO2 SLP146 T01500028
Loading
Personal Weather Stations






























Interactive Weather Map New forecast layout! Learn more

10-Day Weather Forecast

Advertisements
Track Severe Weather on mobile